sensor_id;sensor_type;location;lat;lon;timestamp;P1;durP1;ratioP1;P2;durP2;ratioP2
78207;SDS011;67481;50.244;18.288;2023-04-24T00:00:40;25.58;;;15.25;;
78207;SDS011;67481;50.244;18.288;2023-04-24T00:03:26;28.17;;;14.98;;
78207;SDS011;67481;50.244;18.288;2023-04-24T00:06:13;27.90;;;15.18;;
78207;SDS011;67481;50.244;18.288;2023-04-24T00:09:05;30.77;;;16.75;;
78207;SDS011;67481;50.244;18.288;2023-04-24T00:11:51;28.50;;;16.60;;
78207;SDS011;67481;50.244;18.288;2023-04-24T00:14:37;28.05;;;15.48;;
78207;SDS011;67481;50.244;18.288;2023-04-24T00:17:23;28.33;;;14.50;;
78207;SDS011;67481;50.244;18.288;2023-04-24T00:20:10;25.33;;;13.57;;
78207;SDS011;67481;50.244;18.288;2023-04-24T00:22:56;27.38;;;17.30;;
78207;SDS011;67481;50.244;18.288;2023-04-24T00:25:41;29.55;;;16.27;;
78207;SDS011;67481;50.244;18.288;2023-04-24T00:28:27;21.00;;;12.85;;
78207;SDS011;67481;50.244;18.288;2023-04-24T00:31:14;23.55;;;13.13;;
78207;SDS011;67481;50.244;18.288;2023-04-24T00:34:00;27.17;;;13.40;;
78207;SDS011;67481;50.244;18.288;2023-04-24T00:39:36;25.38;;;12.93;;
78207;SDS011;67481;50.244;18.288;2023-04-24T00:42:21;29.15;;;15.13;;
78207;SDS011;67481;50.244;18.288;2023-04-24T00:45:07;29.77;;;16.40;;
78207;SDS011;67481;50.244;18.288;2023-04-24T00:47:53;30.58;;;16.02;;
78207;SDS011;67481;50.244;18.288;2023-04-24T00:50:39;25.60;;;13.43;;
78207;SDS011;67481;50.244;18.288;2023-04-24T00:53:24;26.48;;;14.20;;
78207;SDS011;67481;50.244;18.288;2023-04-24T00:56:11;26.50;;;15.15;;
78207;SDS011;67481;50.244;18.288;2023-04-24T00:58:58;22.65;;;13.43;;
78207;SDS011;67481;50.244;18.288;2023-04-24T01:01:45;25.42;;;13.45;;
78207;SDS011;67481;50.244;18.288;2023-04-24T01:04:30;24.10;;;12.90;;
78207;SDS011;67481;50.244;18.288;2023-04-24T01:07:18;22.38;;;12.52;;
78207;SDS011;67481;50.244;18.288;2023-04-24T01:10:06;26.90;;;13.20;;
78207;SDS011;67481;50.244;18.288;2023-04-24T01:12:53;27.33;;;13.50;;
78207;SDS011;67481;50.244;18.288;2023-04-24T01:15:39;21.98;;;12.27;;
78207;SDS011;67481;50.244;18.288;2023-04-24T01:18:26;26.27;;;12.95;;
78207;SDS011;67481;50.244;18.288;2023-04-24T01:21:13;24.52;;;12.63;;
78207;SDS011;67481;50.244;18.288;2023-04-24T01:24:02;25.40;;;13.63;;
78207;SDS011;67481;50.244;18.288;2023-04-24T01:26:51;27.38;;;13.60;;
78207;SDS011;67481;50.244;18.288;2023-04-24T01:29:37;24.40;;;12.88;;
78207;SDS011;67481;50.244;18.288;2023-04-24T01:32:23;25.15;;;12.75;;
78207;SDS011;67481;50.244;18.288;2023-04-24T01:35:11;23.80;;;13.40;;
78207;SDS011;67481;50.244;18.288;2023-04-24T01:37:57;22.35;;;12.32;;
78207;SDS011;67481;50.244;18.288;2023-04-24T01:40:44;25.05;;;13.45;;
78207;SDS011;67481;50.244;18.288;2023-04-24T01:43:30;22.38;;;13.93;;
78207;SDS011;67481;50.244;18.288;2023-04-24T01:46:16;25.75;;;13.15;;
78207;SDS011;67481;50.244;18.288;2023-04-24T01:49:03;23.40;;;12.38;;
78207;SDS011;67481;50.244;18.288;2023-04-24T01:51:49;24.52;;;12.50;;
78207;SDS011;67481;50.244;18.288;2023-04-24T01:54:35;28.02;;;11.88;;
78207;SDS011;67481;50.244;18.288;2023-04-24T01:57:20;22.48;;;12.07;;
78207;SDS011;67481;50.244;18.288;2023-04-24T02:00:06;22.33;;;12.65;;
78207;SDS011;67481;50.244;18.288;2023-04-24T02:02:58;25.23;;;12.68;;
78207;SDS011;67481;50.244;18.288;2023-04-24T02:05:44;23.48;;;12.73;;
78207;SDS011;67481;50.244;18.288;2023-04-24T02:08:31;24.83;;;12.50;;
78207;SDS011;67481;50.244;18.288;2023-04-24T02:11:16;23.00;;;12.80;;
78207;SDS011;67481;50.244;18.288;2023-04-24T02:14:02;21.45;;;11.93;;
78207;SDS011;67481;50.244;18.288;2023-04-24T02:16:49;22.30;;;11.90;;
78207;SDS011;67481;50.244;18.288;2023-04-24T02:19:35;21.92;;;11.95;;
78207;SDS011;67481;50.244;18.288;2023-04-24T02:22:21;22.63;;;11.60;;
78207;SDS011;67481;50.244;18.288;2023-04-24T02:25:06;20.92;;;11.73;;
78207;SDS011;67481;50.244;18.288;2023-04-24T02:27:53;20.23;;;10.18;;
78207;SDS011;67481;50.244;18.288;2023-04-24T02:30:39;22.30;;;11.98;;
78207;SDS011;67481;50.244;18.288;2023-04-24T02:33:25;18.67;;;10.27;;
78207;SDS011;67481;50.244;18.288;2023-04-24T02:36:11;19.73;;;10.93;;
78207;SDS011;67481;50.244;18.288;2023-04-24T02:38:56;21.75;;;11.35;;
78207;SDS011;67481;50.244;18.288;2023-04-24T02:41:42;20.30;;;11.13;;
78207;SDS011;67481;50.244;18.288;2023-04-24T02:44:28;22.65;;;11.23;;
78207;SDS011;67481;50.244;18.288;2023-04-24T02:47:14;20.63;;;10.85;;
78207;SDS011;67481;50.244;18.288;2023-04-24T02:50:00;24.65;;;11.63;;
78207;SDS011;67481;50.244;18.288;2023-04-24T02:52:46;20.55;;;11.13;;
78207;SDS011;67481;50.244;18.288;2023-04-24T02:55:31;20.83;;;11.13;;
78207;SDS011;67481;50.244;18.288;2023-04-24T02:58:17;22.83;;;11.70;;
78207;SDS011;67481;50.244;18.288;2023-04-24T03:01:06;19.88;;;10.75;;
78207;SDS011;67481;50.244;18.288;2023-04-24T03:03:52;23.10;;;11.43;;
78207;SDS011;67481;50.244;18.288;2023-04-24T03:06:38;23.10;;;12.15;;
78207;SDS011;67481;50.244;18.288;2023-04-24T03:09:24;19.50;;;10.32;;
78207;SDS011;67481;50.244;18.288;2023-04-24T03:12:10;22.63;;;11.57;;
78207;SDS011;67481;50.244;18.288;2023-04-24T03:14:57;18.92;;;9.95;;
78207;SDS011;67481;50.244;18.288;2023-04-24T03:17:43;17.67;;;9.43;;
78207;SDS011;67481;50.244;18.288;2023-04-24T03:20:28;24.02;;;12.30;;
78207;SDS011;67481;50.244;18.288;2023-04-24T03:23:15;18.33;;;9.90;;
78207;SDS011;67481;50.244;18.288;2023-04-24T03:26:01;18.67;;;10.95;;
78207;SDS011;67481;50.244;18.288;2023-04-24T03:28:48;18.58;;;9.25;;
78207;SDS011;67481;50.244;18.288;2023-04-24T03:31:34;19.73;;;9.52;;
78207;SDS011;67481;50.244;18.288;2023-04-24T03:34:21;55.38;;;21.95;;
78207;SDS011;67481;50.244;18.288;2023-04-24T03:37:07;55.25;;;23.92;;
78207;SDS011;67481;50.244;18.288;2023-04-24T03:39:56;26.00;;;13.20;;
78207;SDS011;67481;50.244;18.288;2023-04-24T03:42:43;39.15;;;16.80;;
78207;SDS011;67481;50.244;18.288;2023-04-24T03:45:29;165.50;;;65.70;;
78207;SDS011;67481;50.244;18.288;2023-04-24T03:48:15;65.38;;;29.92;;
78207;SDS011;67481;50.244;18.288;2023-04-24T03:51:02;33.97;;;18.83;;
78207;SDS011;67481;50.244;18.288;2023-04-24T03:53:49;22.67;;;11.65;;
78207;SDS011;67481;50.244;18.288;2023-04-24T03:56:38;24.33;;;11.57;;
78207;SDS011;67481;50.244;18.288;2023-04-24T03:59:25;36.88;;;15.88;;
78207;SDS011;67481;50.244;18.288;2023-04-24T04:02:26;40.05;;;16.92;;
78207;SDS011;67481;50.244;18.288;2023-04-24T04:05:12;26.60;;;12.95;;
78207;SDS011;67481;50.244;18.288;2023-04-24T04:07:59;26.75;;;14.40;;
78207;SDS011;67481;50.244;18.288;2023-04-24T04:10:45;18.63;;;10.15;;
78207;SDS011;67481;50.244;18.288;2023-04-24T04:13:30;16.55;;;8.18;;
78207;SDS011;67481;50.244;18.288;2023-04-24T04:16:16;15.38;;;7.90;;
78207;SDS011;67481;50.244;18.288;2023-04-24T04:19:04;17.08;;;9.43;;
78207;SDS011;67481;50.244;18.288;2023-04-24T04:21:50;16.10;;;9.32;;
78207;SDS011;67481;50.244;18.288;2023-04-24T04:24:48;18.33;;;9.30;;
78207;SDS011;67481;50.244;18.288;2023-04-24T04:27:39;17.40;;;8.15;;
78207;SDS011;67481;50.244;18.288;2023-04-24T04:30:28;13.95;;;7.85;;
78207;SDS011;67481;50.244;18.288;2023-04-24T04:33:21;21.42;;;9.52;;
78207;SDS011;67481;50.244;18.288;2023-04-24T04:36:08;19.20;;;9.35;;
78207;SDS011;67481;50.244;18.288;2023-04-24T04:38:59;26.15;;;14.63;;
78207;SDS011;67481;50.244;18.288;2023-04-24T04:42:01;28.15;;;15.82;;
78207;SDS011;67481;50.244;18.288;2023-04-24T04:44:55;34.30;;;17.83;;
78207;SDS011;67481;50.244;18.288;2023-04-24T04:47:52;24.77;;;14.23;;
78207;SDS011;67481;50.244;18.288;2023-04-24T04:50:38;17.98;;;10.20;;
78207;SDS011;67481;50.244;18.288;2023-04-24T04:53:25;18.10;;;9.52;;
78207;SDS011;67481;50.244;18.288;2023-04-24T04:56:11;18.00;;;9.27;;
78207;SDS011;67481;50.244;18.288;2023-04-24T04:59:03;18.90;;;10.02;;
78207;SDS011;67481;50.244;18.288;2023-04-24T05:01:51;20.10;;;10.68;;
78207;SDS011;67481;50.244;18.288;2023-04-24T05:04:37;19.23;;;11.55;;
78207;SDS011;67481;50.244;18.288;2023-04-24T05:07:23;24.42;;;11.85;;
78207;SDS011;67481;50.244;18.288;2023-04-24T05:10:10;18.63;;;10.50;;
78207;SDS011;67481;50.244;18.288;2023-04-24T05:12:57;20.08;;;11.95;;
78207;SDS011;67481;50.244;18.288;2023-04-24T05:15:43;22.17;;;10.88;;
78207;SDS011;67481;50.244;18.288;2023-04-24T05:18:28;23.27;;;13.55;;
78207;SDS011;67481;50.244;18.288;2023-04-24T05:21:15;27.50;;;15.60;;
78207;SDS011;67481;50.244;18.288;2023-04-24T05:24:04;39.53;;;22.85;;
78207;SDS011;67481;50.244;18.288;2023-04-24T05:27:10;27.25;;;16.65;;
78207;SDS011;67481;50.244;18.288;2023-04-24T05:32:44;71.65;;;32.50;;
78207;SDS011;67481;50.244;18.288;2023-04-24T05:38:16;64.60;;;28.88;;
78207;SDS011;67481;50.244;18.288;2023-04-24T05:41:04;26.10;;;13.32;;
78207;SDS011;67481;50.244;18.288;2023-04-24T05:43:50;17.80;;;9.18;;
78207;SDS011;67481;50.244;18.288;2023-04-24T05:46:36;39.60;;;16.48;;
78207;SDS011;67481;50.244;18.288;2023-04-24T05:49:22;75.72;;;28.95;;
78207;SDS011;67481;50.244;18.288;2023-04-24T05:52:08;118.68;;;45.05;;
78207;SDS011;67481;50.244;18.288;2023-04-24T05:54:56;150.20;;;57.10;;
78207;SDS011;67481;50.244;18.288;2023-04-24T05:57:46;79.18;;;33.58;;
78207;SDS011;67481;50.244;18.288;2023-04-24T06:00:32;29.30;;;14.25;;
78207;SDS011;67481;50.244;18.288;2023-04-24T06:03:23;21.92;;;9.80;;
78207;SDS011;67481;50.244;18.288;2023-04-24T06:06:09;16.10;;;8.80;;
78207;SDS011;67481;50.244;18.288;2023-04-24T06:08:55;17.40;;;9.38;;
78207;SDS011;67481;50.244;18.288;2023-04-24T06:11:42;15.80;;;9.35;;
78207;SDS011;67481;50.244;18.288;2023-04-24T06:14:29;19.25;;;9.68;;
78207;SDS011;67481;50.244;18.288;2023-04-24T06:17:35;20.23;;;10.82;;
78207;SDS011;67481;50.244;18.288;2023-04-24T06:20:21;19.80;;;9.85;;
78207;SDS011;67481;50.244;18.288;2023-04-24T06:23:07;24.92;;;11.85;;
78207;SDS011;67481;50.244;18.288;2023-04-24T06:25:52;29.70;;;17.75;;
78207;SDS011;67481;50.244;18.288;2023-04-24T06:28:38;35.17;;;16.95;;
78207;SDS011;67481;50.244;18.288;2023-04-24T06:31:24;35.53;;;22.00;;
78207;SDS011;67481;50.244;18.288;2023-04-24T06:34:10;52.25;;;28.60;;
78207;SDS011;67481;50.244;18.288;2023-04-24T06:36:56;20.63;;;11.88;;
78207;SDS011;67481;50.244;18.288;2023-04-24T06:39:41;33.28;;;15.52;;
78207;SDS011;67481;50.244;18.288;2023-04-24T06:42:28;27.60;;;15.93;;
78207;SDS011;67481;50.244;18.288;2023-04-24T06:45:13;29.05;;;14.50;;
78207;SDS011;67481;50.244;18.288;2023-04-24T06:47:59;30.98;;;16.00;;
78207;SDS011;67481;50.244;18.288;2023-04-24T06:50:45;38.13;;;21.33;;
78207;SDS011;67481;50.244;18.288;2023-04-24T06:53:32;32.50;;;16.40;;
78207;SDS011;67481;50.244;18.288;2023-04-24T06:56:18;51.50;;;28.92;;
78207;SDS011;67481;50.244;18.288;2023-04-24T06:59:04;33.58;;;18.27;;
78207;SDS011;67481;50.244;18.288;2023-04-24T07:01:49;29.17;;;15.05;;
78207;SDS011;67481;50.244;18.288;2023-04-24T07:04:39;28.42;;;15.25;;
78207;SDS011;67481;50.244;18.288;2023-04-24T07:07:25;31.38;;;15.95;;
78207;SDS011;67481;50.244;18.288;2023-04-24T07:10:11;32.80;;;16.50;;
78207;SDS011;67481;50.244;18.288;2023-04-24T07:12:57;35.15;;;19.52;;
78207;SDS011;67481;50.244;18.288;2023-04-24T07:15:42;33.97;;;16.63;;
78207;SDS011;67481;50.244;18.288;2023-04-24T07:18:28;29.33;;;14.95;;
78207;SDS011;67481;50.244;18.288;2023-04-24T07:21:14;29.63;;;16.42;;
78207;SDS011;67481;50.244;18.288;2023-04-24T07:23:59;29.25;;;15.52;;
78207;SDS011;67481;50.244;18.288;2023-04-24T07:26:45;30.52;;;15.85;;
78207;SDS011;67481;50.244;18.288;2023-04-24T07:29:31;30.55;;;15.90;;
78207;SDS011;67481;50.244;18.288;2023-04-24T07:32:16;33.28;;;16.60;;
78207;SDS011;67481;50.244;18.288;2023-04-24T07:35:02;33.22;;;18.20;;
78207;SDS011;67481;50.244;18.288;2023-04-24T07:37:48;31.95;;;18.08;;
78207;SDS011;67481;50.244;18.288;2023-04-24T07:40:34;32.80;;;18.65;;
78207;SDS011;67481;50.244;18.288;2023-04-24T07:43:20;33.13;;;17.52;;
78207;SDS011;67481;50.244;18.288;2023-04-24T07:46:06;32.30;;;16.95;;
78207;SDS011;67481;50.244;18.288;2023-04-24T07:48:53;30.67;;;16.58;;
78207;SDS011;67481;50.244;18.288;2023-04-24T07:51:56;30.42;;;16.60;;
78207;SDS011;67481;50.244;18.288;2023-04-24T07:54:41;31.70;;;17.38;;
78207;SDS011;67481;50.244;18.288;2023-04-24T07:57:28;28.27;;;15.07;;
78207;SDS011;67481;50.244;18.288;2023-04-24T08:00:14;29.13;;;15.45;;
78207;SDS011;67481;50.244;18.288;2023-04-24T08:03:00;27.20;;;14.45;;
78207;SDS011;67481;50.244;18.288;2023-04-24T08:05:46;27.63;;;14.55;;
78207;SDS011;67481;50.244;18.288;2023-04-24T08:08:32;26.15;;;14.00;;
78207;SDS011;67481;50.244;18.288;2023-04-24T08:11:17;22.88;;;12.82;;
78207;SDS011;67481;50.244;18.288;2023-04-24T08:14:03;26.67;;;14.00;;
78207;SDS011;67481;50.244;18.288;2023-04-24T08:16:48;25.88;;;13.40;;
78207;SDS011;67481;50.244;18.288;2023-04-24T08:19:34;22.42;;;12.32;;
78207;SDS011;67481;50.244;18.288;2023-04-24T08:22:19;24.67;;;12.60;;
78207;SDS011;67481;50.244;18.288;2023-04-24T08:25:05;24.60;;;13.27;;
78207;SDS011;67481;50.244;18.288;2023-04-24T08:27:51;22.55;;;12.68;;
78207;SDS011;67481;50.244;18.288;2023-04-24T08:30:37;22.40;;;11.48;;
78207;SDS011;67481;50.244;18.288;2023-04-24T08:33:24;12.20;;;6.28;;
78207;SDS011;67481;50.244;18.288;2023-04-24T08:36:09;18.35;;;9.85;;
78207;SDS011;67481;50.244;18.288;2023-04-24T08:38:56;19.65;;;11.23;;
78207;SDS011;67481;50.244;18.288;2023-04-24T08:41:42;20.92;;;11.50;;
78207;SDS011;67481;50.244;18.288;2023-04-24T08:44:28;19.13;;;10.43;;
78207;SDS011;67481;50.244;18.288;2023-04-24T08:47:13;18.95;;;10.75;;
78207;SDS011;67481;50.244;18.288;2023-04-24T08:50:02;19.42;;;10.23;;
78207;SDS011;67481;50.244;18.288;2023-04-24T08:52:51;18.35;;;10.35;;
78207;SDS011;67481;50.244;18.288;2023-04-24T08:55:38;18.17;;;10.40;;
78207;SDS011;67481;50.244;18.288;2023-04-24T08:58:25;21.35;;;10.88;;
78207;SDS011;67481;50.244;18.288;2023-04-24T09:01:11;17.85;;;9.10;;
78207;SDS011;67481;50.244;18.288;2023-04-24T09:03:57;18.60;;;9.52;;
78207;SDS011;67481;50.244;18.288;2023-04-24T09:06:43;18.55;;;9.07;;
78207;SDS011;67481;50.244;18.288;2023-04-24T09:09:30;16.60;;;9.23;;
78207;SDS011;67481;50.244;18.288;2023-04-24T09:12:17;14.63;;;8.25;;
78207;SDS011;67481;50.244;18.288;2023-04-24T09:15:06;14.98;;;8.30;;
78207;SDS011;67481;50.244;18.288;2023-04-24T09:17:52;17.23;;;8.60;;
78207;SDS011;67481;50.244;18.288;2023-04-24T09:21:12;16.60;;;9.55;;
78207;SDS011;67481;50.244;18.288;2023-04-24T09:24:37;14.63;;;8.20;;
78207;SDS011;67481;50.244;18.288;2023-04-24T09:27:05;16.15;;;8.75;;
78207;SDS011;67481;50.244;18.288;2023-04-24T09:29:55;15.48;;;7.80;;
78207;SDS011;67481;50.244;18.288;2023-04-24T09:32:41;15.20;;;8.30;;
78207;SDS011;67481;50.244;18.288;2023-04-24T09:35:27;18.02;;;8.63;;
78207;SDS011;67481;50.244;18.288;2023-04-24T09:38:13;13.77;;;7.82;;
78207;SDS011;67481;50.244;18.288;2023-04-24T09:40:59;12.30;;;7.50;;
78207;SDS011;67481;50.244;18.288;2023-04-24T09:46:32;14.45;;;7.20;;
78207;SDS011;67481;50.244;18.288;2023-04-24T09:49:25;14.45;;;7.30;;
78207;SDS011;67481;50.244;18.288;2023-04-24T09:54:57;14.88;;;6.93;;
78207;SDS011;67481;50.244;18.288;2023-04-24T09:57:53;14.13;;;7.93;;
78207;SDS011;67481;50.244;18.288;2023-04-24T10:00:39;13.88;;;6.88;;
78207;SDS011;67481;50.244;18.288;2023-04-24T10:03:25;12.30;;;6.85;;
78207;SDS011;67481;50.244;18.288;2023-04-24T10:06:14;12.18;;;6.78;;
78207;SDS011;67481;50.244;18.288;2023-04-24T10:09:00;13.88;;;7.80;;
78207;SDS011;67481;50.244;18.288;2023-04-24T10:11:46;12.77;;;7.13;;
78207;SDS011;67481;50.244;18.288;2023-04-24T10:14:33;14.00;;;7.10;;
78207;SDS011;67481;50.244;18.288;2023-04-24T10:17:19;12.90;;;7.45;;
78207;SDS011;67481;50.244;18.288;2023-04-24T10:20:06;13.93;;;7.10;;
78207;SDS011;67481;50.244;18.288;2023-04-24T10:22:53;11.50;;;5.70;;
78207;SDS011;67481;50.244;18.288;2023-04-24T10:25:39;13.52;;;6.97;;
78207;SDS011;67481;50.244;18.288;2023-04-24T10:28:25;12.95;;;6.63;;
78207;SDS011;67481;50.244;18.288;2023-04-24T10:31:11;11.13;;;6.05;;
78207;SDS011;67481;50.244;18.288;2023-04-24T10:33:58;13.18;;;6.13;;
78207;SDS011;67481;50.244;18.288;2023-04-24T10:36:46;14.70;;;6.93;;
78207;SDS011;67481;50.244;18.288;2023-04-24T10:39:34;12.32;;;7.05;;
78207;SDS011;67481;50.244;18.288;2023-04-24T10:42:20;11.93;;;6.05;;
78207;SDS011;67481;50.244;18.288;2023-04-24T10:45:07;13.35;;;6.00;;
78207;SDS011;67481;50.244;18.288;2023-04-24T10:48:09;11.63;;;6.60;;
78207;SDS011;67481;50.244;18.288;2023-04-24T10:51:01;14.05;;;7.00;;
78207;SDS011;67481;50.244;18.288;2023-04-24T10:53:47;15.45;;;7.97;;
78207;SDS011;67481;50.244;18.288;2023-04-24T10:56:35;12.90;;;7.03;;
78207;SDS011;67481;50.244;18.288;2023-04-24T10:59:24;11.10;;;6.65;;
78207;SDS011;67481;50.244;18.288;2023-04-24T11:02:16;10.88;;;5.55;;
78207;SDS011;67481;50.244;18.288;2023-04-24T11:05:03;10.07;;;5.72;;
78207;SDS011;67481;50.244;18.288;2023-04-24T11:11:00;12.20;;;6.80;;
78207;SDS011;67481;50.244;18.288;2023-04-24T11:16:44;11.27;;;6.88;;
78207;SDS011;67481;50.244;18.288;2023-04-24T11:19:30;11.35;;;6.68;;
78207;SDS011;67481;50.244;18.288;2023-04-24T11:22:16;10.77;;;6.70;;
78207;SDS011;67481;50.244;18.288;2023-04-24T11:25:02;12.15;;;6.88;;
78207;SDS011;67481;50.244;18.288;2023-04-24T11:27:50;12.05;;;7.13;;
78207;SDS011;67481;50.244;18.288;2023-04-24T11:30:35;11.93;;;7.38;;
78207;SDS011;67481;50.244;18.288;2023-04-24T11:33:25;11.52;;;7.03;;
78207;SDS011;67481;50.244;18.288;2023-04-24T11:36:10;11.88;;;7.00;;
78207;SDS011;67481;50.244;18.288;2023-04-24T11:38:56;13.88;;;7.55;;
78207;SDS011;67481;50.244;18.288;2023-04-24T11:41:42;11.77;;;7.45;;
78207;SDS011;67481;50.244;18.288;2023-04-24T11:44:28;11.00;;;7.38;;
78207;SDS011;67481;50.244;18.288;2023-04-24T11:47:13;12.63;;;7.78;;
78207;SDS011;67481;50.244;18.288;2023-04-24T11:49:59;12.63;;;7.82;;
78207;SDS011;67481;50.244;18.288;2023-04-24T11:52:46;12.88;;;7.43;;
78207;SDS011;67481;50.244;18.288;2023-04-24T11:55:33;14.63;;;8.50;;
78207;SDS011;67481;50.244;18.288;2023-04-24T11:58:22;11.80;;;7.20;;
78207;SDS011;67481;50.244;18.288;2023-04-24T12:01:08;9.95;;;6.65;;
78207;SDS011;67481;50.244;18.288;2023-04-24T12:03:59;13.65;;;7.28;;
78207;SDS011;67481;50.244;18.288;2023-04-24T12:09:48;11.55;;;7.20;;
78207;SDS011;67481;50.244;18.288;2023-04-24T12:12:44;11.63;;;7.40;;
78207;SDS011;67481;50.244;18.288;2023-04-24T12:18:17;11.68;;;6.20;;
78207;SDS011;67481;50.244;18.288;2023-04-24T12:21:16;12.57;;;7.03;;
78207;SDS011;67481;50.244;18.288;2023-04-24T12:24:06;12.02;;;7.90;;
78207;SDS011;67481;50.244;18.288;2023-04-24T12:26:52;11.20;;;6.93;;
78207;SDS011;67481;50.244;18.288;2023-04-24T12:29:50;13.15;;;8.23;;
78207;SDS011;67481;50.244;18.288;2023-04-24T12:32:41;10.85;;;6.47;;
78207;SDS011;67481;50.244;18.288;2023-04-24T12:35:28;11.57;;;6.97;;
78207;SDS011;67481;50.244;18.288;2023-04-24T12:38:21;13.00;;;6.65;;
78207;SDS011;67481;50.244;18.288;2023-04-24T12:41:09;9.63;;;5.60;;
78207;SDS011;67481;50.244;18.288;2023-04-24T12:43:56;14.63;;;8.48;;
78207;SDS011;67481;50.244;18.288;2023-04-24T12:46:41;12.20;;;7.50;;
78207;SDS011;67481;50.244;18.288;2023-04-24T12:49:29;12.30;;;6.70;;
78207;SDS011;67481;50.244;18.288;2023-04-24T12:52:24;12.95;;;6.90;;
78207;SDS011;67481;50.244;18.288;2023-04-24T12:55:11;14.30;;;7.32;;
78207;SDS011;67481;50.244;18.288;2023-04-24T12:57:57;14.23;;;8.07;;
78207;SDS011;67481;50.244;18.288;2023-04-24T13:00:43;12.70;;;6.93;;
78207;SDS011;67481;50.244;18.288;2023-04-24T13:06:17;11.68;;;6.32;;
78207;SDS011;67481;50.244;18.288;2023-04-24T13:09:02;13.00;;;7.53;;
78207;SDS011;67481;50.244;18.288;2023-04-24T13:11:48;15.77;;;7.40;;
78207;SDS011;67481;50.244;18.288;2023-04-24T13:14:35;14.82;;;8.85;;
78207;SDS011;67481;50.244;18.288;2023-04-24T13:17:21;15.13;;;7.50;;
78207;SDS011;67481;50.244;18.288;2023-04-24T13:20:07;12.00;;;6.05;;
78207;SDS011;67481;50.244;18.288;2023-04-24T13:22:53;13.10;;;7.78;;
78207;SDS011;67481;50.244;18.288;2023-04-24T13:25:38;12.55;;;7.60;;
78207;SDS011;67481;50.244;18.288;2023-04-24T13:28:24;11.50;;;6.43;;
78207;SDS011;67481;50.244;18.288;2023-04-24T13:31:10;13.90;;;7.47;;
78207;SDS011;67481;50.244;18.288;2023-04-24T13:33:56;13.27;;;7.88;;
78207;SDS011;67481;50.244;18.288;2023-04-24T13:36:41;16.80;;;8.85;;
78207;SDS011;67481;50.244;18.288;2023-04-24T13:39:27;20.02;;;7.28;;
78207;SDS011;67481;50.244;18.288;2023-04-24T13:42:13;13.23;;;7.80;;
78207;SDS011;67481;50.244;18.288;2023-04-24T13:44:59;12.82;;;7.65;;
78207;SDS011;67481;50.244;18.288;2023-04-24T13:47:48;11.95;;;7.75;;
78207;SDS011;67481;50.244;18.288;2023-04-24T13:50:36;14.32;;;7.30;;
78207;SDS011;67481;50.244;18.288;2023-04-24T13:53:21;18.05;;;7.88;;
78207;SDS011;67481;50.244;18.288;2023-04-24T13:56:07;15.93;;;8.43;;
78207;SDS011;67481;50.244;18.288;2023-04-24T13:58:54;12.43;;;7.47;;
78207;SDS011;67481;50.244;18.288;2023-04-24T14:01:39;13.30;;;7.78;;
78207;SDS011;67481;50.244;18.288;2023-04-24T14:04:25;12.52;;;7.63;;
78207;SDS011;67481;50.244;18.288;2023-04-24T14:07:11;12.98;;;7.40;;
78207;SDS011;67481;50.244;18.288;2023-04-24T14:09:56;16.00;;;7.93;;
78207;SDS011;67481;50.244;18.288;2023-04-24T14:12:42;13.18;;;7.57;;
78207;SDS011;67481;50.244;18.288;2023-04-24T14:15:28;13.25;;;7.10;;
78207;SDS011;67481;50.244;18.288;2023-04-24T14:18:13;12.00;;;7.15;;
78207;SDS011;67481;50.244;18.288;2023-04-24T14:20:59;15.15;;;8.18;;
78207;SDS011;67481;50.244;18.288;2023-04-24T14:23:46;15.98;;;7.72;;
78207;SDS011;67481;50.244;18.288;2023-04-24T14:26:31;13.27;;;8.25;;
78207;SDS011;67481;50.244;18.288;2023-04-24T14:29:17;11.70;;;7.05;;
78207;SDS011;67481;50.244;18.288;2023-04-24T14:32:04;12.10;;;7.15;;
78207;SDS011;67481;50.244;18.288;2023-04-24T14:34:50;14.88;;;10.68;;
78207;SDS011;67481;50.244;18.288;2023-04-24T14:37:36;14.30;;;8.80;;
78207;SDS011;67481;50.244;18.288;2023-04-24T14:40:22;15.15;;;8.27;;
78207;SDS011;67481;50.244;18.288;2023-04-24T14:46:13;11.60;;;6.05;;
78207;SDS011;67481;50.244;18.288;2023-04-24T14:48:59;14.52;;;8.30;;
78207;SDS011;67481;50.244;18.288;2023-04-24T14:51:45;14.30;;;8.77;;
78207;SDS011;67481;50.244;18.288;2023-04-24T14:54:30;14.38;;;9.07;;
78207;SDS011;67481;50.244;18.288;2023-04-24T14:57:15;17.52;;;10.07;;
78207;SDS011;67481;50.244;18.288;2023-04-24T15:00:01;15.48;;;10.35;;
78207;SDS011;67481;50.244;18.288;2023-04-24T15:02:49;13.82;;;8.18;;
78207;SDS011;67481;50.244;18.288;2023-04-24T15:05:35;17.38;;;9.25;;
78207;SDS011;67481;50.244;18.288;2023-04-24T15:08:21;14.70;;;9.25;;
78207;SDS011;67481;50.244;18.288;2023-04-24T15:11:07;15.95;;;9.35;;
78207;SDS011;67481;50.244;18.288;2023-04-24T15:13:54;16.13;;;8.80;;
78207;SDS011;67481;50.244;18.288;2023-04-24T15:16:40;16.92;;;9.43;;
78207;SDS011;67481;50.244;18.288;2023-04-24T15:19:25;16.13;;;9.45;;
78207;SDS011;67481;50.244;18.288;2023-04-24T15:22:11;15.95;;;9.52;;
78207;SDS011;67481;50.244;18.288;2023-04-24T15:24:56;16.52;;;9.60;;
78207;SDS011;67481;50.244;18.288;2023-04-24T15:27:42;16.92;;;10.38;;
78207;SDS011;67481;50.244;18.288;2023-04-24T15:30:28;17.73;;;9.75;;
78207;SDS011;67481;50.244;18.288;2023-04-24T15:33:14;16.27;;;9.57;;
78207;SDS011;67481;50.244;18.288;2023-04-24T15:36:00;14.77;;;8.63;;
78207;SDS011;67481;50.244;18.288;2023-04-24T15:38:46;14.93;;;10.35;;
78207;SDS011;67481;50.244;18.288;2023-04-24T15:41:32;15.57;;;9.75;;
78207;SDS011;67481;50.244;18.288;2023-04-24T15:44:18;22.58;;;11.85;;
78207;SDS011;67481;50.244;18.288;2023-04-24T15:47:04;27.92;;;14.52;;
78207;SDS011;67481;50.244;18.288;2023-04-24T15:49:49;18.23;;;10.82;;
78207;SDS011;67481;50.244;18.288;2023-04-24T15:52:34;23.25;;;12.93;;
78207;SDS011;67481;50.244;18.288;2023-04-24T15:55:20;19.25;;;11.90;;
78207;SDS011;67481;50.244;18.288;2023-04-24T15:58:06;20.08;;;11.70;;
78207;SDS011;67481;50.244;18.288;2023-04-24T16:00:52;17.95;;;11.90;;
78207;SDS011;67481;50.244;18.288;2023-04-24T16:03:38;22.50;;;11.25;;
78207;SDS011;67481;50.244;18.288;2023-04-24T16:06:24;16.08;;;10.65;;
78207;SDS011;67481;50.244;18.288;2023-04-24T16:09:11;20.15;;;11.32;;
78207;SDS011;67481;50.244;18.288;2023-04-24T16:11:57;22.35;;;12.80;;
78207;SDS011;67481;50.244;18.288;2023-04-24T16:14:43;22.88;;;13.25;;
78207;SDS011;67481;50.244;18.288;2023-04-24T16:17:29;18.23;;;10.73;;
78207;SDS011;67481;50.244;18.288;2023-04-24T16:20:15;25.60;;;16.17;;
78207;SDS011;67481;50.244;18.288;2023-04-24T16:23:01;20.40;;;12.68;;
78207;SDS011;67481;50.244;18.288;2023-04-24T16:25:47;29.08;;;14.77;;
78207;SDS011;67481;50.244;18.288;2023-04-24T16:28:32;36.35;;;18.10;;
78207;SDS011;67481;50.244;18.288;2023-04-24T16:31:18;25.95;;;14.40;;
78207;SDS011;67481;50.244;18.288;2023-04-24T16:34:03;31.60;;;17.75;;
78207;SDS011;67481;50.244;18.288;2023-04-24T16:36:49;45.38;;;24.85;;
78207;SDS011;67481;50.244;18.288;2023-04-24T16:39:34;31.98;;;19.48;;